createdAt,value
2023-03-26T00:01:25.435Z,4.05
2023-03-26T00:03:54.945Z,3.80
2023-03-26T00:06:27.640Z,3.87
2023-03-26T00:08:57.456Z,3.92
2023-03-26T00:11:27.797Z,4.38
2023-03-26T00:16:29.094Z,4.10
2023-03-26T00:18:57.861Z,3.67
2023-03-26T00:21:29.217Z,3.40
2023-03-26T00:23:59.936Z,3.35
2023-03-26T00:26:29.805Z,3.03
2023-03-26T00:31:24.681Z,3.13
2023-03-26T00:33:56.020Z,3.20
2023-03-26T00:36:25.946Z,3.42
2023-03-26T00:38:54.129Z,3.78
2023-03-26T00:41:25.355Z,3.70
2023-03-26T00:43:56.642Z,3.45
2023-03-26T00:46:25.931Z,3.67
2023-03-26T00:48:53.757Z,3.63
2023-03-26T00:51:21.833Z,3.35
2023-03-26T00:53:50.111Z,3.45
2023-03-26T00:56:19.016Z,3.25
2023-03-26T00:58:47.616Z,3.00
2023-03-26T01:01:18.996Z,3.60
2023-03-26T01:04:01.168Z,3.75
2023-03-26T01:06:36.598Z,2.75
2023-03-26T01:09:12.855Z,3.00
2023-03-26T01:11:39.946Z,3.28
2023-03-26T01:14:11.898Z,3.00
2023-03-26T01:16:45.154Z,3.13
2023-03-26T01:19:21.335Z,2.35
2023-03-26T01:21:48.984Z,2.90
2023-03-26T01:24:16.319Z,2.90
2023-03-26T01:27:12.166Z,2.78
2023-03-26T01:30:13.268Z,2.42
2023-03-26T01:32:48.864Z,2.50
2023-03-26T01:35:45.116Z,2.30
2023-03-26T01:38:28.043Z,2.08
2023-03-26T01:41:05.826Z,2.28
2023-03-26T01:43:37.078Z,1.77
2023-03-26T01:46:08.208Z,1.90
2023-03-26T01:48:38.427Z,2.20
2023-03-26T01:53:42.418Z,1.90
2023-03-26T01:56:32.416Z,1.90
2023-03-26T01:59:14.689Z,1.83
2023-03-26T02:01:56.050Z,2.05
2023-03-26T02:04:53.119Z,2.53
2023-03-26T02:07:48.012Z,2.25
2023-03-26T02:10:29.641Z,2.22
2023-03-26T02:12:57.906Z,2.20
2023-03-26T02:15:25.682Z,2.40
2023-03-26T02:17:53.506Z,2.50
2023-03-26T02:20:21.585Z,2.40
2023-03-26T02:22:48.655Z,2.00
2023-03-26T02:25:20.618Z,2.70
2023-03-26T02:27:51.027Z,2.30
2023-03-26T02:30:21.812Z,1.77
2023-03-26T02:32:52.451Z,2.00
2023-03-26T02:35:22.260Z,2.00
2023-03-26T02:37:53.541Z,1.70
2023-03-26T02:40:23.246Z,1.50
2023-03-26T02:42:51.521Z,1.40
2023-03-26T02:45:18.603Z,1.60
2023-03-26T02:48:18.148Z,1.65
2023-03-26T02:50:54.426Z,1.38
2023-03-26T02:53:57.125Z,1.40
2023-03-26T02:56:41.940Z,1.50
2023-03-26T02:59:18.984Z,1.42
2023-03-26T03:01:50.749Z,1.42
2023-03-26T03:04:19.747Z,1.50
2023-03-26T03:06:53.120Z,1.67
2023-03-26T03:09:20.760Z,1.58
2023-03-26T03:12:23.126Z,1.77
2023-03-26T03:14:50.599Z,1.67
2023-03-26T03:17:17.583Z,1.95
2023-03-26T03:19:45.458Z,2.30
2023-03-26T03:22:12.775Z,2.60
2023-03-26T03:24:43.938Z,2.72
2023-03-26T03:29:42.584Z,2.80
2023-03-26T03:32:28.117Z,3.13
2023-03-26T03:34:59.961Z,3.05
2023-03-26T03:37:27.445Z,3.30
2023-03-26T03:39:55.815Z,3.47
2023-03-26T03:42:25.468Z,3.70
2023-03-26T03:47:57.960Z,4.38
2023-03-26T03:50:35.508Z,3.03
2023-03-26T03:53:32.346Z,3.63
2023-03-26T03:56:02.242Z,2.55
2023-03-26T03:59:04.857Z,2.70
2023-03-26T04:01:35.127Z,2.80
2023-03-26T04:04:07.529Z,3.10
2023-03-26T04:06:52.980Z,3.00
2023-03-26T04:09:20.587Z,2.67
2023-03-26T04:11:50.887Z,3.08
2023-03-26T04:14:38.194Z,3.00
2023-03-26T04:17:13.725Z,2.80
2023-03-26T04:19:41.470Z,2.50
2023-03-26T04:22:12.163Z,2.50
2023-03-26T04:24:54.521Z,2.75
2023-03-26T04:27:32.231Z,2.53
2023-03-26T04:30:20.632Z,2.78
2023-03-26T04:32:58.708Z,2.70
2023-03-26T04:35:30.516Z,2.28
2023-03-26T04:37:58.466Z,2.53
2023-03-26T04:40:30.719Z,2.22
2023-03-26T04:43:31.401Z,2.43
2023-03-26T04:46:22.007Z,2.60
2023-03-26T04:48:55.798Z,2.25
2023-03-26T04:51:27.256Z,2.40
2023-03-26T04:54:00.530Z,2.40
2023-03-26T04:56:50.227Z,2.92
2023-03-26T04:59:35.448Z,2.90
2023-03-26T05:02:06.684Z,2.45
2023-03-26T05:04:46.087Z,2.50
2023-03-26T05:07:18.878Z,2.72
2023-03-26T05:09:49.671Z,2.58
2023-03-26T05:12:22.472Z,2.65
2023-03-26T05:15:19.379Z,2.63
2023-03-26T05:18:06.431Z,2.67
2023-03-26T05:20:42.624Z,2.83
2023-03-26T05:23:10.927Z,2.50
2023-03-26T05:25:43.461Z,2.60
2023-03-26T05:28:19.346Z,2.70
2023-03-26T05:31:18.990Z,2.30
2023-03-26T05:33:48.794Z,2.75
2023-03-26T05:36:17.390Z,2.45
2023-03-26T05:38:49.859Z,2.88
2023-03-26T05:41:36.864Z,2.80
2023-03-26T05:44:04.345Z,2.40
2023-03-26T05:46:31.998Z,2.53
2023-03-26T05:48:59.565Z,2.97
2023-03-26T05:51:30.446Z,2.63
2023-03-26T05:54:10.584Z,2.38
2023-03-26T05:57:00.964Z,2.92
2023-03-26T05:59:46.845Z,2.88
2023-03-26T06:02:16.654Z,2.75
2023-03-26T06:05:04.502Z,3.60
2023-03-26T06:07:50.204Z,3.13
2023-03-26T06:10:19.474Z,2.70
2023-03-26T06:12:46.874Z,3.28
2023-03-26T06:15:14.113Z,2.70
2023-03-26T06:17:50.675Z,2.20
2023-03-26T06:20:37.657Z,2.67
2023-03-26T06:23:17.756Z,2.50
2023-03-26T06:26:05.265Z,2.30
2023-03-26T06:29:01.785Z,2.80
2023-03-26T06:31:46.722Z,3.00
2023-03-26T06:34:26.566Z,3.10
2023-03-26T06:36:53.896Z,2.80
2023-03-26T06:39:22.014Z,2.70
2023-03-26T06:41:58.330Z,2.80
2023-03-26T06:45:01.155Z,3.03
2023-03-26T06:47:34.471Z,2.63
2023-03-26T06:50:20.607Z,2.53
2023-03-26T06:53:19.883Z,2.40
2023-03-26T06:55:55.529Z,2.40
2023-03-26T06:58:45.963Z,2.22
2023-03-26T07:01:31.688Z,2.22
2023-03-26T07:04:31.346Z,2.03
2023-03-26T07:07:16.848Z,2.33
2023-03-26T07:10:02.788Z,2.20
2023-03-26T07:12:50.056Z,1.90
2023-03-26T07:15:35.944Z,2.13
2023-03-26T07:18:26.272Z,1.92
2023-03-26T07:20:53.898Z,1.58
2023-03-26T07:23:22.253Z,2.10
2023-03-26T07:26:45.045Z,1.65
2023-03-26T07:29:20.096Z,1.92
2023-03-26T07:32:35.843Z,1.90
2023-03-26T07:35:38.035Z,1.75
2023-03-26T07:38:40.903Z,1.90
2023-03-26T07:41:40.818Z,1.80
2023-03-26T07:44:37.283Z,1.98
2023-03-26T07:47:33.926Z,2.38
2023-03-26T07:50:19.095Z,2.30
2023-03-26T07:56:21.180Z,2.40
2023-03-26T08:02:43.971Z,2.38
2023-03-26T08:05:52.658Z,1.98
2023-03-26T08:08:53.697Z,1.98
2023-03-26T08:14:51.159Z,2.73
2023-03-26T08:17:26.483Z,2.20
2023-03-26T08:20:12.707Z,2.00
2023-03-26T08:22:42.913Z,1.95
2023-03-26T08:25:22.881Z,1.90
2023-03-26T08:28:22.374Z,2.08
2023-03-26T08:30:49.570Z,2.37
2023-03-26T08:33:20.854Z,2.75
2023-03-26T08:35:50.243Z,2.10
2023-03-26T08:38:19.647Z,2.17
2023-03-26T08:41:07.939Z,2.45
2023-03-26T08:43:56.593Z,2.33
2023-03-26T08:46:57.636Z,2.05
2023-03-26T08:49:39.118Z,2.20
2023-03-26T08:52:43.159Z,1.92
2023-03-26T08:55:22.171Z,2.35
2023-03-26T08:58:28.030Z,2.30
2023-03-26T09:01:19.786Z,2.15
2023-03-26T09:03:58.941Z,1.95
2023-03-26T09:07:00.211Z,1.90
2023-03-26T09:10:06.962Z,2.42
2023-03-26T09:12:52.855Z,2.00
2023-03-26T09:15:43.927Z,1.58
2023-03-26T09:18:41.624Z,1.83
2023-03-26T09:21:52.141Z,1.80
2023-03-26T09:27:36.999Z,1.73
2023-03-26T09:30:38.208Z,2.03
2023-03-26T09:33:42.919Z,1.83
2023-03-26T09:36:47.118Z,1.70
2023-03-26T09:39:39.378Z,1.65
2023-03-26T09:42:09.075Z,1.80
2023-03-26T09:44:52.456Z,2.78
2023-03-26T09:47:39.816Z,2.22
2023-03-26T09:50:35.399Z,2.55
2023-03-26T09:53:14.299Z,1.95
2023-03-26T09:55:50.105Z,2.20
2023-03-26T09:58:40.906Z,2.03
2023-03-26T10:01:16.380Z,2.25
2023-03-26T10:03:54.558Z,1.70
2023-03-26T10:06:46.092Z,2.28
2023-03-26T10:09:43.767Z,1.45
2023-03-26T10:12:46.349Z,1.60
2023-03-26T10:15:42.892Z,1.88
2023-03-26T10:18:27.624Z,2.00
2023-03-26T10:21:15.048Z,1.88
2023-03-26T10:24:09.771Z,1.85
2023-03-26T10:27:09.741Z,2.00
2023-03-26T10:29:45.416Z,2.03
2023-03-26T10:32:27.492Z,2.95
2023-03-26T10:35:41.845Z,2.03
2023-03-26T10:38:15.186Z,2.38
2023-03-26T10:40:58.791Z,2.15
2023-03-26T10:43:57.693Z,3.42
2023-03-26T10:46:37.480Z,2.30
2023-03-26T10:49:35.312Z,3.08
2023-03-26T10:52:06.898Z,3.50
2023-03-26T10:54:54.384Z,2.60
2023-03-26T10:57:50.589Z,3.00
2023-03-26T11:00:25.188Z,3.35
2023-03-26T11:03:13.063Z,2.60
2023-03-26T11:05:51.679Z,2.35
2023-03-26T11:08:35.888Z,2.90
2023-03-26T11:11:03.131Z,1.67
2023-03-26T11:13:53.906Z,1.98
2023-03-26T11:16:43.692Z,2.90
2023-03-26T11:19:31.595Z,2.10
2023-03-26T11:22:16.869Z,4.85
2023-03-26T11:24:56.110Z,1.83
2023-03-26T11:27:36.802Z,2.28
2023-03-26T11:30:13.704Z,2.25
2023-03-26T11:32:48.546Z,1.20
2023-03-26T11:35:40.249Z,1.20
2023-03-26T11:38:33.053Z,1.40
2023-03-26T11:41:03.180Z,1.20
2023-03-26T11:43:52.587Z,0.90
2023-03-26T11:46:23.090Z,1.10
2023-03-26T11:49:01.653Z,1.48
2023-03-26T11:51:37.268Z,1.30
2023-03-26T11:54:06.553Z,0.90
2023-03-26T11:57:10.337Z,0.88
2023-03-26T11:59:49.001Z,1.20
2023-03-26T12:02:29.800Z,1.00
2023-03-26T12:05:18.441Z,1.13
2023-03-26T12:07:59.685Z,0.90
2023-03-26T12:10:38.295Z,1.20
2023-03-26T12:13:26.687Z,1.15
2023-03-26T12:15:59.726Z,0.90
2023-03-26T12:18:28.649Z,0.95
2023-03-26T12:21:11.683Z,1.50
2023-03-26T12:23:54.179Z,1.10
2023-03-26T12:26:36.191Z,1.35
2023-03-26T12:29:23.421Z,1.73
2023-03-26T12:32:03.959Z,1.02
2023-03-26T12:37:04.264Z,1.00
2023-03-26T12:40:08.111Z,1.27
2023-03-26T12:44:50.581Z,1.50
2023-03-26T12:45:40.936Z,1.27
2023-03-26T12:48:12.030Z,1.25
2023-03-26T12:51:11.265Z,1.60
2023-03-26T12:53:46.918Z,1.95
2023-03-26T12:56:27.564Z,1.67
2023-03-26T12:59:21.968Z,1.73
2023-03-26T13:02:01.394Z,1.73
2023-03-26T13:05:05.109Z,1.98
2023-03-26T13:07:50.865Z,1.95
2023-03-26T13:10:50.208Z,1.60
2023-03-26T13:13:37.540Z,1.38
2023-03-26T13:16:32.566Z,1.45
2023-03-26T13:19:29.012Z,1.60
2023-03-26T13:22:16.299Z,1.50
2023-03-26T13:24:56.012Z,1.45
2023-03-26T13:27:36.310Z,1.20
2023-03-26T13:30:22.121Z,1.40
2023-03-26T13:32:52.298Z,0.95
2023-03-26T13:35:32.149Z,0.77
2023-03-26T13:38:04.805Z,0.75
2023-03-26T13:40:43.620Z,0.60
2023-03-26T13:43:41.691Z,0.85
2023-03-26T13:46:14.937Z,0.70
2023-03-26T13:48:54.474Z,0.90
2023-03-26T13:51:33.502Z,0.82
2023-03-26T13:54:23.358Z,0.77
2023-03-26T13:57:10.213Z,0.70
2023-03-26T13:59:44.352Z,0.80
2023-03-26T14:02:24.860Z,0.90
2023-03-26T14:07:28.150Z,0.90
2023-03-26T14:10:15.691Z,0.90
2023-03-26T14:12:56.956Z,1.00
2023-03-26T14:15:47.122Z,0.80
2023-03-26T14:18:35.618Z,0.90
2023-03-26T14:21:21.922Z,0.70
2023-03-26T14:24:35.002Z,0.75
2023-03-26T14:27:09.405Z,0.82
2023-03-26T14:30:14.326Z,0.80
2023-03-26T14:32:53.231Z,0.80
2023-03-26T14:35:38.493Z,0.73
2023-03-26T14:38:35.557Z,0.70
2023-03-26T14:41:05.482Z,1.15
2023-03-26T14:43:52.723Z,1.40
2023-03-26T14:46:28.673Z,1.17
2023-03-26T14:49:10.048Z,0.90
2023-03-26T14:51:50.959Z,0.80
2023-03-26T14:54:22.903Z,0.93
2023-03-26T14:57:45.521Z,0.90
2023-03-26T15:00:34.824Z,0.80
2023-03-26T15:03:26.174Z,0.63
2023-03-26T15:06:30.422Z,1.13
2023-03-26T15:09:00.587Z,1.17
2023-03-26T15:11:55.371Z,1.08
2023-03-26T15:14:46.239Z,1.20
2023-03-26T15:17:48.924Z,1.45
2023-03-26T15:21:03.315Z,1.20
2023-03-26T15:23:47.539Z,1.30
2023-03-26T15:26:46.618Z,2.05
2023-03-26T15:29:48.761Z,1.58
2023-03-26T15:32:41.114Z,1.33
2023-03-26T15:35:41.909Z,1.90
2023-03-26T15:38:54.743Z,1.10
2023-03-26T15:42:00.429Z,1.40
2023-03-26T15:44:53.241Z,1.00
2023-03-26T15:47:40.156Z,1.23
2023-03-26T15:50:23.297Z,1.85
2023-03-26T15:53:29.115Z,1.35
2023-03-26T15:56:10.691Z,1.80
2023-03-26T15:58:56.839Z,1.58
2023-03-26T16:01:42.098Z,3.40
2023-03-26T16:04:50.685Z,2.03
2023-03-26T16:07:21.999Z,2.27
2023-03-26T16:09:56.107Z,1.25
2023-03-26T16:12:37.592Z,0.82
2023-03-26T16:15:25.252Z,1.05
2023-03-26T16:18:07.075Z,2.05
2023-03-26T16:20:55.700Z,1.10
2023-03-26T16:23:47.702Z,1.35
2023-03-26T16:26:20.939Z,1.85
2023-03-26T16:28:52.846Z,1.60
2023-03-26T16:31:37.654Z,1.45
2023-03-26T16:34:08.028Z,1.30
2023-03-26T16:36:35.396Z,1.60
2023-03-26T16:39:08.613Z,1.80
2023-03-26T16:41:47.231Z,1.75
2023-03-26T16:44:59.108Z,1.88
2023-03-26T16:47:32.537Z,1.55
2023-03-26T16:50:29.260Z,1.55
2023-03-26T16:53:15.668Z,1.33
2023-03-26T16:56:14.907Z,1.30
2023-03-26T16:59:07.056Z,1.52
2023-03-26T17:01:35.959Z,1.60
2023-03-26T17:04:17.345Z,1.58
2023-03-26T17:07:05.855Z,2.03
2023-03-26T17:09:42.896Z,1.70
2023-03-26T17:12:32.655Z,1.77
2023-03-26T17:15:45.993Z,1.52
2023-03-26T17:18:39.377Z,1.40
2023-03-26T17:21:46.617Z,1.25
2023-03-26T17:24:26.835Z,1.60
2023-03-26T17:27:24.135Z,1.27
2023-03-26T17:30:28.649Z,1.58
2023-03-26T17:33:32.784Z,1.95
2023-03-26T17:36:52.421Z,1.85
2023-03-26T17:39:39.480Z,2.20
2023-03-26T17:42:26.919Z,1.92
2023-03-26T17:44:55.940Z,3.05
2023-03-26T17:47:44.327Z,3.45
2023-03-26T17:50:55.664Z,3.10
2023-03-26T17:53:31.927Z,3.60
2023-03-26T17:56:04.080Z,3.05
2023-03-26T17:58:46.160Z,3.67
2023-03-26T18:01:37.452Z,4.43
2023-03-26T18:04:08.218Z,2.80
2023-03-26T18:06:59.820Z,2.30
2023-03-26T18:09:48.361Z,2.97
2023-03-26T18:12:47.628Z,3.53
2023-03-26T18:15:15.861Z,3.22
2023-03-26T18:17:46.387Z,3.22
2023-03-26T18:20:23.456Z,3.67
2023-03-26T18:22:52.060Z,3.50
2023-03-26T18:25:29.364Z,4.10
2023-03-26T18:27:57.512Z,5.00
2023-03-26T18:30:26.437Z,4.75
2023-03-26T18:33:00.076Z,4.60
2023-03-26T18:35:39.266Z,4.50
2023-03-26T18:38:06.559Z,4.30
2023-03-26T18:40:41.437Z,4.35
2023-03-26T18:43:28.639Z,4.60
2023-03-26T18:46:01.684Z,4.63
2023-03-26T18:48:29.438Z,4.22
2023-03-26T18:51:06.204Z,4.30
2023-03-26T18:53:41.438Z,3.75
2023-03-26T18:56:37.236Z,3.92
2023-03-26T18:59:07.989Z,4.13
2023-03-26T19:01:37.601Z,3.97
2023-03-26T19:04:07.647Z,3.80
2023-03-26T19:06:38.749Z,3.65
2023-03-26T19:09:16.365Z,3.72
2023-03-26T19:11:57.303Z,3.33
2023-03-26T19:14:26.266Z,4.32
2023-03-26T19:17:00.798Z,3.70
2023-03-26T19:19:33.076Z,3.90
2023-03-26T19:22:00.547Z,3.95
2023-03-26T19:24:27.758Z,4.10
2023-03-26T19:26:54.781Z,4.38
2023-03-26T19:29:27.490Z,4.60
2023-03-26T19:32:02.261Z,6.30
2023-03-26T19:34:35.320Z,5.63
2023-03-26T19:37:16.417Z,3.80
2023-03-26T19:39:55.602Z,3.67
2023-03-26T19:42:44.119Z,4.10
2023-03-26T19:45:23.279Z,3.60
2023-03-26T19:48:00.598Z,3.88
2023-03-26T19:50:43.082Z,4.82
2023-03-26T19:53:19.245Z,4.07
2023-03-26T19:55:58.934Z,3.42
2023-03-26T19:58:27.426Z,3.47
2023-03-26T20:00:56.554Z,4.63
2023-03-26T20:03:39.322Z,4.63
2023-03-26T20:06:09.092Z,5.22
2023-03-26T20:08:36.219Z,4.65
2023-03-26T20:11:03.281Z,10.25
2023-03-26T20:13:31.380Z,9.05
2023-03-26T20:16:07.471Z,7.28
2023-03-26T20:18:35.180Z,9.52
2023-03-26T20:21:02.827Z,6.47
2023-03-26T20:23:29.914Z,7.13
2023-03-26T20:25:57.264Z,7.35
2023-03-26T20:28:24.686Z,7.10
2023-03-26T20:30:54.593Z,6.45
2023-03-26T20:33:28.130Z,6.82
2023-03-26T20:35:57.011Z,5.80
2023-03-26T20:38:39.085Z,6.60
2023-03-26T20:41:12.137Z,5.85
2023-03-26T20:43:39.278Z,6.15
2023-03-26T20:46:06.860Z,7.07
2023-03-26T20:48:34.267Z,5.97
2023-03-26T20:51:01.919Z,6.10
2023-03-26T20:53:30.646Z,6.78
2023-03-26T20:55:57.654Z,5.70
2023-03-26T20:58:31.017Z,5.15
2023-03-26T21:01:02.620Z,6.35
2023-03-26T21:03:29.794Z,5.18
2023-03-26T21:06:00.782Z,5.57
2023-03-26T21:08:34.339Z,5.47
2023-03-26T21:11:03.193Z,4.85
2023-03-26T21:13:41.277Z,4.47
2023-03-26T21:16:10.465Z,3.97
2023-03-26T21:18:37.994Z,4.35
2023-03-26T21:21:23.475Z,4.40
2023-03-26T21:24:00.333Z,4.40
2023-03-26T21:26:35.611Z,4.75
2023-03-26T21:29:09.124Z,4.75
2023-03-26T21:31:38.175Z,5.20
2023-03-26T21:34:05.755Z,4.47
2023-03-26T21:36:33.545Z,4.65
2023-03-26T21:39:01.515Z,4.75
2023-03-26T21:41:47.082Z,4.65
2023-03-26T21:44:18.579Z,5.25
2023-03-26T21:46:47.827Z,4.60
2023-03-26T21:49:17.086Z,4.45
2023-03-26T21:51:45.282Z,4.35
2023-03-26T21:54:25.724Z,4.70
2023-03-26T21:57:06.086Z,4.82
2023-03-26T22:02:15.028Z,6.60
2023-03-26T22:05:12.855Z,5.55
2023-03-26T22:07:50.659Z,5.93
2023-03-26T22:10:18.011Z,5.50
2023-03-26T22:12:44.917Z,5.50
2023-03-26T22:15:14.005Z,5.82
2023-03-26T22:17:42.019Z,6.55
2023-03-26T22:20:13.094Z,6.57
2023-03-26T22:22:53.349Z,7.53
2023-03-26T22:27:50.882Z,5.85
2023-03-26T22:30:20.895Z,5.18
2023-03-26T22:32:48.714Z,5.40
2023-03-26T22:35:16.340Z,7.03
2023-03-26T22:37:43.742Z,8.25
2023-03-26T22:40:13.624Z,8.35
2023-03-26T22:42:41.723Z,7.20
2023-03-26T22:45:12.557Z,6.93
2023-03-26T22:47:40.306Z,6.40
2023-03-26T22:50:08.592Z,7.30
2023-03-26T22:52:37.004Z,9.65
2023-03-26T22:55:05.471Z,8.30
2023-03-26T22:57:32.511Z,8.68
2023-03-26T23:00:12.307Z,6.57
2023-03-26T23:02:40.443Z,5.15
2023-03-26T23:05:07.754Z,5.57
2023-03-26T23:07:34.786Z,8.40
2023-03-26T23:10:02.268Z,6.20
2023-03-26T23:12:29.323Z,6.05
2023-03-26T23:14:56.356Z,6.38
2023-03-26T23:17:24.118Z,5.57
2023-03-26T23:19:51.661Z,6.93
2023-03-26T23:22:19.426Z,6.57
2023-03-26T23:24:46.442Z,4.95
2023-03-26T23:27:13.380Z,5.00
2023-03-26T23:29:40.397Z,6.03
2023-03-26T23:32:24.525Z,5.78
2023-03-26T23:34:52.611Z,5.53
2023-03-26T23:37:23.466Z,5.78
2023-03-26T23:39:51.193Z,4.82
2023-03-26T23:42:29.231Z,4.88
2023-03-26T23:44:57.593Z,5.38
2023-03-26T23:47:24.841Z,4.72
2023-03-26T23:49:51.874Z,5.32
2023-03-26T23:52:18.931Z,5.00
2023-03-26T23:54:46.018Z,5.60
2023-03-26T23:57:13.110Z,5.07
2023-03-26T23:59:41.615Z,6.32
